KDLS/DLS METAR and TAF weather

Enter ICAO airport designator
Station Type Date Time Source
KDLS METAR 2020/04/06 16:53 UTC NOAA

KDLS 061653Z AUTO 31006KT 10SM CLR 09/04 A2988 RMK AO2 SLP117 T00890039


Station Type Date Time Source
KDLS Decoded METAR 2020/04/06 16:53 UTC NOAA

THE DALLES MUNICIPAL AIRPORT , OR, United States (KDLS) 45-37N 121-10W 71M
Apr 06, 2020 - 12:53 PM EDT / 2020.04.06 1653 UTC
Wind: from the NW (310 degrees) at 7 MPH (6 KT):0
Visibility: 10 mile(s):0
Sky conditions: clear
Temperature: 48.0 F (8.9 C)
Dew Point: 39.0 F (3.9 C)
Relative Humidity: 70%
Pressure (altimeter): 29.88 in. Hg (1011 hPa)
ob: KDLS 061653Z AUTO 31006KT 10SM CLR 09/04 A2988 RMK AO2 SLP117 T00890039
cycle: 17

Station Type Date Time Source
KDLS TAF 2020/04/06 12:33 UTC NOAA

TAF KDLS 061130Z 0612/0712 31007KT P6SM SCT060 BKN250
FM062300 31015KT P6SM SCT060 BKN250

Example: see airport list